createdAt,value
2018-12-31T00:00:43.916Z,4.70
2018-12-31T00:03:13.214Z,4.60
2018-12-31T00:05:42.147Z,4.70
2018-12-31T00:08:11.426Z,4.70
2018-12-31T00:10:40.596Z,4.70
2018-12-31T00:13:09.753Z,4.70
2018-12-31T00:15:38.686Z,4.90
2018-12-31T00:18:08.215Z,4.90
2018-12-31T00:20:37.075Z,4.80
2018-12-31T00:23:06.281Z,4.80
2018-12-31T00:25:35.527Z,4.90
2018-12-31T00:28:05.816Z,4.90
2018-12-31T00:30:34.941Z,4.80
2018-12-31T00:33:04.096Z,4.90
2018-12-31T00:35:33.030Z,5.00
2018-12-31T00:38:01.975Z,4.90
2018-12-31T00:40:30.857Z,4.80
2018-12-31T00:42:59.745Z,4.90
2018-12-31T00:45:29.041Z,4.80
2018-12-31T00:47:57.932Z,4.80
2018-12-31T00:50:27.094Z,4.80
2018-12-31T00:52:56.255Z,4.70
2018-12-31T00:55:25.189Z,4.80
2018-12-31T00:57:54.140Z,4.80
2018-12-31T01:00:23.143Z,4.80
2018-12-31T01:02:52.012Z,4.80
2018-12-31T01:05:20.935Z,4.70
2018-12-31T01:07:49.819Z,4.60
2018-12-31T01:10:18.688Z,4.70
2018-12-31T01:12:47.940Z,4.60
2018-12-31T01:15:16.976Z,4.60
2018-12-31T01:17:45.828Z,4.70
2018-12-31T01:20:14.698Z,4.70
2018-12-31T01:22:43.967Z,4.70
2018-12-31T01:25:13.078Z,4.80
2018-12-31T01:27:42.370Z,4.80
2018-12-31T01:30:12.081Z,5.00
2018-12-31T01:32:40.929Z,5.30
2018-12-31T01:35:09.822Z,5.30
2018-12-31T01:37:38.752Z,5.20
2018-12-31T01:40:07.784Z,5.30
2018-12-31T01:42:36.647Z,5.30
2018-12-31T01:45:05.860Z,5.10
2018-12-31T01:47:35.134Z,4.90
2018-12-31T01:50:04.841Z,4.80
2018-12-31T01:52:34.045Z,4.70
2018-12-31T01:55:03.234Z,4.90
2018-12-31T01:57:32.911Z,5.00
2018-12-31T02:00:01.789Z,4.90
2018-12-31T02:02:30.661Z,4.90
2018-12-31T02:04:59.601Z,4.80
2018-12-31T02:07:28.476Z,4.80
2018-12-31T02:09:57.376Z,4.70
2018-12-31T02:12:26.502Z,4.70
2018-12-31T02:14:55.661Z,4.70
2018-12-31T02:17:24.517Z,4.60
2018-12-31T02:19:53.703Z,4.70
2018-12-31T02:22:22.923Z,4.80
2018-12-31T02:24:51.797Z,4.80
2018-12-31T02:27:20.964Z,4.80
2018-12-31T02:29:49.843Z,4.80
2018-12-31T02:32:19.146Z,4.70
2018-12-31T02:34:48.094Z,4.80
2018-12-31T02:37:17.004Z,4.80
2018-12-31T02:39:45.886Z,4.70
2018-12-31T02:42:14.884Z,4.70
2018-12-31T02:44:43.840Z,4.60
2018-12-31T02:47:12.714Z,4.70
2018-12-31T02:49:41.576Z,4.80
2018-12-31T02:52:10.453Z,4.80
2018-12-31T02:54:39.698Z,4.80
2018-12-31T02:57:08.645Z,4.70
2018-12-31T02:59:37.500Z,4.70
2018-12-31T03:02:06.383Z,4.70
2018-12-31T03:04:35.245Z,4.70
2018-12-31T03:07:04.276Z,4.70
2018-12-31T03:09:33.211Z,4.70
2018-12-31T03:12:02.463Z,4.60
2018-12-31T03:14:31.743Z,4.70
2018-12-31T03:17:00.688Z,4.70
2018-12-31T03:19:29.558Z,4.60
2018-12-31T03:21:58.924Z,4.80
2018-12-31T03:24:27.938Z,4.80
2018-12-31T03:26:56.800Z,4.70
2018-12-31T03:29:25.662Z,4.60
2018-12-31T03:31:54.618Z,4.60
2018-12-31T03:34:23.852Z,4.60
2018-12-31T03:36:53.009Z,4.60
2018-12-31T03:39:21.878Z,4.60
2018-12-31T03:41:50.828Z,4.60
2018-12-31T03:44:19.689Z,4.70
2018-12-31T03:46:48.568Z,4.80
2018-12-31T03:49:17.581Z,4.70
2018-12-31T03:51:46.457Z,4.90
2018-12-31T03:54:15.320Z,5.00
2018-12-31T03:56:44.531Z,4.90
2018-12-31T03:59:13.392Z,4.90
2018-12-31T04:01:42.716Z,4.90
2018-12-31T04:04:12.333Z,4.80
2018-12-31T04:06:41.631Z,4.90
2018-12-31T04:09:10.558Z,4.90
2018-12-31T04:11:39.817Z,4.90
2018-12-31T04:14:08.674Z,4.90
2018-12-31T04:16:37.623Z,4.90
2018-12-31T04:19:07.214Z,5.10
2018-12-31T04:21:36.077Z,5.20
2018-12-31T04:24:05.475Z,5.10
2018-12-31T04:26:34.644Z,5.00
2018-12-31T04:29:03.909Z,5.20
2018-12-31T04:31:32.753Z,5.30
2018-12-31T04:34:01.634Z,5.10
2018-12-31T04:36:30.487Z,5.10
2018-12-31T04:38:59.667Z,5.00
2018-12-31T04:41:28.881Z,5.00
2018-12-31T04:43:57.830Z,5.00
2018-12-31T04:46:26.955Z,5.00
2018-12-31T04:48:56.155Z,5.10
2018-12-31T04:51:25.160Z,5.10
2018-12-31T04:53:54.454Z,5.10
2018-12-31T04:56:23.640Z,5.20
2018-12-31T04:58:52.527Z,5.00
2018-12-31T05:01:21.381Z,4.90
2018-12-31T05:03:50.573Z,5.00
2018-12-31T05:06:19.498Z,5.10
2018-12-31T05:08:48.715Z,5.30
2018-12-31T05:11:17.580Z,5.30
2018-12-31T05:13:46.754Z,5.00
2018-12-31T05:16:15.680Z,4.90
2018-12-31T05:18:44.851Z,5.00
2018-12-31T05:21:14.197Z,5.00
2018-12-31T05:23:43.409Z,4.90
2018-12-31T05:26:12.272Z,4.90
2018-12-31T05:28:41.481Z,5.00
2018-12-31T05:31:10.349Z,5.10
2018-12-31T05:33:39.222Z,5.30
2018-12-31T05:36:08.401Z,5.30
2018-12-31T05:38:37.348Z,5.30
2018-12-31T05:41:06.220Z,5.30
2018-12-31T05:43:35.169Z,5.10
2018-12-31T05:46:04.037Z,5.10
2018-12-31T05:48:32.904Z,5.10
2018-12-31T05:51:01.769Z,5.00
2018-12-31T05:53:30.632Z,5.20
2018-12-31T05:55:59.548Z,5.40
2018-12-31T05:58:28.433Z,5.30
2018-12-31T06:00:57.621Z,5.10
2018-12-31T06:03:26.491Z,5.10
2018-12-31T06:05:55.360Z,5.00
2018-12-31T06:08:24.326Z,5.00
2018-12-31T06:10:53.575Z,5.00
2018-12-31T06:13:22.523Z,5.00
2018-12-31T06:15:51.452Z,5.00
2018-12-31T06:18:20.673Z,5.10
2018-12-31T06:20:49.545Z,5.10
2018-12-31T06:23:18.397Z,5.20
2018-12-31T06:25:47.582Z,5.20
2018-12-31T06:28:16.759Z,5.10
2018-12-31T06:30:46.420Z,5.10
2018-12-31T06:33:15.340Z,5.10
2018-12-31T06:35:44.213Z,5.10
2018-12-31T06:38:13.145Z,5.00
2018-12-31T06:40:42.042Z,5.00
2018-12-31T06:43:10.973Z,4.90
2018-12-31T06:45:39.857Z,4.90
2018-12-31T06:48:08.781Z,4.80
2018-12-31T06:50:37.652Z,4.80
2018-12-31T06:53:06.870Z,4.80
2018-12-31T06:55:36.050Z,4.80
2018-12-31T06:58:05.066Z,4.80
2018-12-31T07:00:33.932Z,4.80
2018-12-31T07:03:02.786Z,4.80
2018-12-31T07:05:31.728Z,4.80
2018-12-31T07:08:00.662Z,4.80
2018-12-31T07:10:29.525Z,4.90
2018-12-31T07:12:58.377Z,4.90
2018-12-31T07:15:27.320Z,4.90
2018-12-31T07:17:56.758Z,4.90
2018-12-31T07:20:25.715Z,4.80
2018-12-31T07:22:54.696Z,4.80
2018-12-31T07:25:23.871Z,4.90
2018-12-31T07:27:52.734Z,4.90
2018-12-31T07:30:22.040Z,4.90
2018-12-31T07:32:50.968Z,5.00
2018-12-31T07:35:19.923Z,5.00
2018-12-31T07:37:49.037Z,5.00
2018-12-31T07:40:17.909Z,5.00
2018-12-31T07:42:46.788Z,5.00
2018-12-31T07:45:15.918Z,5.10
2018-12-31T07:47:44.773Z,5.20
2018-12-31T07:50:13.908Z,5.20
2018-12-31T07:52:43.097Z,5.20
2018-12-31T07:55:11.971Z,5.20
2018-12-31T07:57:42.150Z,5.20
2018-12-31T08:00:11.213Z,5.20
2018-12-31T08:02:40.296Z,5.20
2018-12-31T08:05:09.160Z,5.30
2018-12-31T08:07:38.393Z,5.30
2018-12-31T08:10:07.594Z,5.30
2018-12-31T08:12:36.445Z,5.40
2018-12-31T08:15:06.281Z,5.50
2018-12-31T08:17:35.128Z,5.60
2018-12-31T08:20:04.203Z,5.50
2018-12-31T08:22:33.057Z,5.40
2018-12-31T08:25:02.068Z,5.40
2018-12-31T08:27:30.948Z,5.30
2018-12-31T08:29:59.799Z,5.40
2018-12-31T08:32:28.751Z,5.40
2018-12-31T08:34:58.065Z,5.30
2018-12-31T08:37:27.540Z,5.40
2018-12-31T08:39:56.656Z,5.40
2018-12-31T08:42:25.613Z,5.40
2018-12-31T08:44:54.892Z,5.50
2018-12-31T08:47:23.867Z,5.50
2018-12-31T08:49:52.713Z,5.50
2018-12-31T08:52:21.731Z,5.60
2018-12-31T08:54:50.577Z,5.80
2018-12-31T08:57:19.733Z,5.90
2018-12-31T08:59:48.921Z,5.80
2018-12-31T09:02:17.848Z,5.90
2018-12-31T09:04:46.715Z,5.90
2018-12-31T09:07:15.972Z,5.90
2018-12-31T09:09:45.175Z,5.90
2018-12-31T09:12:14.473Z,5.80
2018-12-31T09:14:43.673Z,5.70
2018-12-31T09:17:12.818Z,5.80
2018-12-31T09:19:41.694Z,5.70
2018-12-31T09:22:10.560Z,5.70
2018-12-31T09:24:44.572Z,5.70
2018-12-31T09:27:10.586Z,5.70
2018-12-31T09:29:39.722Z,5.60
2018-12-31T09:32:08.665Z,5.70
2018-12-31T09:34:37.516Z,5.90
2018-12-31T09:37:06.465Z,6.00
2018-12-31T09:39:35.590Z,6.10
2018-12-31T09:42:04.620Z,6.00
2018-12-31T09:44:33.743Z,6.10
2018-12-31T09:47:02.687Z,6.20
2018-12-31T09:49:31.830Z,6.30
2018-12-31T09:52:00.688Z,6.30
2018-12-31T09:54:29.553Z,6.30
2018-12-31T09:56:58.493Z,6.40
2018-12-31T09:59:27.349Z,6.40
2018-12-31T10:01:56.708Z,6.40
2018-12-31T10:04:25.893Z,6.50
2018-12-31T10:06:54.829Z,6.40
2018-12-31T10:09:24.026Z,6.40
2018-12-31T10:11:53.042Z,6.30
2018-12-31T10:14:22.210Z,6.30
2018-12-31T10:16:51.077Z,6.30
2018-12-31T10:19:19.933Z,6.50
2018-12-31T10:21:49.153Z,6.60
2018-12-31T10:24:18.005Z,6.50
2018-12-31T10:26:46.945Z,6.60
2018-12-31T10:29:15.873Z,6.70
2018-12-31T10:31:44.737Z,6.50
2018-12-31T10:34:13.608Z,6.50
2018-12-31T10:36:42.532Z,6.40
2018-12-31T10:39:11.406Z,6.30
2018-12-31T10:41:40.694Z,6.40
2018-12-31T10:44:09.572Z,6.50
2018-12-31T10:46:38.439Z,6.50
2018-12-31T10:49:07.385Z,6.60
2018-12-31T10:51:36.688Z,6.60
2018-12-31T10:54:05.742Z,6.60
2018-12-31T10:56:34.596Z,6.60
2018-12-31T10:59:03.469Z,6.70
2018-12-31T11:01:32.406Z,6.90
2018-12-31T11:04:01.942Z,7.00
2018-12-31T11:06:30.868Z,7.10
2018-12-31T11:09:00.141Z,7.10
2018-12-31T11:11:29.442Z,7.10
2018-12-31T11:13:58.400Z,7.10
2018-12-31T11:16:27.261Z,7.10
2018-12-31T11:18:56.144Z,7.10
2018-12-31T11:21:25.417Z,7.10
2018-12-31T11:23:54.289Z,7.10
2018-12-31T11:26:23.144Z,7.00
2018-12-31T11:28:52.025Z,7.20
2018-12-31T11:31:20.956Z,7.30
2018-12-31T11:33:49.834Z,7.20
2018-12-31T11:36:19.149Z,7.20
2018-12-31T11:38:48.788Z,7.30
2018-12-31T11:41:18.287Z,7.30
2018-12-31T11:43:47.582Z,7.20
2018-12-31T11:46:16.521Z,7.30
2018-12-31T11:48:45.465Z,7.20
2018-12-31T11:51:14.321Z,7.40
2018-12-31T11:53:43.277Z,7.60
2018-12-31T11:56:12.546Z,7.60
2018-12-31T11:58:41.869Z,7.60
2018-12-31T12:01:10.928Z,7.50
2018-12-31T12:03:39.909Z,7.50
2018-12-31T12:06:08.912Z,7.40
2018-12-31T12:08:37.800Z,7.60
2018-12-31T12:11:06.656Z,7.60
2018-12-31T12:13:35.546Z,7.60
2018-12-31T12:16:04.574Z,7.50
2018-12-31T12:18:33.588Z,7.50
2018-12-31T12:21:02.621Z,7.60
2018-12-31T12:23:31.855Z,7.60
2018-12-31T12:26:01.202Z,7.60
2018-12-31T12:28:30.504Z,7.60
2018-12-31T12:30:59.461Z,7.60
2018-12-31T12:33:28.394Z,7.70
2018-12-31T12:35:57.564Z,7.80
2018-12-31T12:38:26.421Z,7.80
2018-12-31T12:40:55.303Z,7.90
2018-12-31T12:43:24.440Z,7.90
2018-12-31T12:45:53.319Z,7.90
2018-12-31T12:48:22.470Z,8.00
2018-12-31T12:50:51.837Z,8.00
2018-12-31T12:53:20.771Z,8.00
2018-12-31T12:55:50.076Z,8.10
2018-12-31T12:58:19.277Z,8.20
2018-12-31T13:00:48.437Z,8.10
2018-12-31T13:03:17.711Z,8.20
2018-12-31T13:05:47.333Z,8.10
2018-12-31T13:08:16.289Z,8.10
2018-12-31T13:10:45.524Z,8.10
2018-12-31T13:13:15.034Z,8.10
2018-12-31T13:15:44.082Z,8.10
2018-12-31T13:18:13.222Z,8.00
2018-12-31T13:20:42.625Z,8.00
2018-12-31T13:23:11.497Z,8.10
2018-12-31T13:25:40.744Z,8.10
2018-12-31T13:28:09.677Z,8.10
2018-12-31T13:30:39.062Z,7.90
2018-12-31T13:33:07.913Z,7.80
2018-12-31T13:35:37.088Z,7.90
2018-12-31T13:38:06.402Z,7.80
2018-12-31T13:40:35.665Z,7.90
2018-12-31T13:43:04.797Z,7.90
2018-12-31T13:45:33.763Z,7.90
2018-12-31T13:48:03.045Z,7.80
2018-12-31T13:50:32.300Z,7.90
2018-12-31T13:53:01.249Z,7.90
2018-12-31T13:55:30.492Z,8.00
2018-12-31T13:57:59.668Z,7.90
2018-12-31T14:00:28.653Z,7.90
2018-12-31T14:02:57.745Z,7.90
2018-12-31T14:05:26.790Z,7.90
2018-12-31T14:07:55.733Z,7.80
2018-12-31T14:10:24.695Z,7.80
2018-12-31T14:12:53.841Z,7.80
2018-12-31T14:15:22.709Z,7.90
2018-12-31T14:17:51.654Z,7.90
2018-12-31T14:20:20.589Z,7.80
2018-12-31T14:22:49.467Z,7.70
2018-12-31T14:25:18.809Z,7.70
2018-12-31T14:27:47.757Z,7.70
2018-12-31T14:30:16.945Z,7.60
2018-12-31T14:32:45.942Z,7.60
2018-12-31T14:35:14.796Z,7.60
2018-12-31T14:37:43.753Z,7.50
2018-12-31T14:40:12.641Z,7.60
2018-12-31T14:42:41.537Z,7.60
2018-12-31T14:45:10.856Z,7.60
2018-12-31T14:47:39.858Z,7.50
2018-12-31T14:50:09.172Z,7.60
2018-12-31T14:52:38.781Z,7.50
2018-12-31T14:55:08.255Z,7.50
2018-12-31T14:57:40.482Z,7.60
2018-12-31T15:00:11.293Z,7.60
2018-12-31T15:02:41.546Z,7.60
2018-12-31T15:05:11.257Z,7.60
2018-12-31T15:07:40.208Z,7.60
2018-12-31T15:10:13.343Z,7.50
2018-12-31T15:12:42.413Z,7.50
2018-12-31T15:15:11.804Z,7.50
2018-12-31T15:17:42.110Z,7.60
2018-12-31T15:20:11.177Z,7.60
2018-12-31T15:22:40.202Z,7.60
2018-12-31T15:25:09.461Z,7.40
2018-12-31T15:27:38.418Z,7.40
2018-12-31T15:30:08.713Z,7.30
2018-12-31T15:32:37.584Z,7.30
2018-12-31T15:35:07.789Z,7.30
2018-12-31T15:37:37.375Z,7.20
2018-12-31T15:40:08.038Z,7.20
2018-12-31T15:42:37.285Z,7.10
2018-12-31T15:45:07.451Z,7.10
2018-12-31T15:47:36.501Z,7.00
2018-12-31T15:50:07.008Z,7.00
2018-12-31T15:52:35.957Z,7.00
2018-12-31T15:55:04.981Z,7.00
2018-12-31T15:57:33.845Z,7.00
2018-12-31T16:00:02.911Z,7.00
2018-12-31T16:02:32.361Z,7.00
2018-12-31T16:05:01.914Z,7.00
2018-12-31T16:07:31.297Z,6.90
2018-12-31T16:10:00.317Z,7.00
2018-12-31T16:12:29.828Z,7.00
2018-12-31T16:14:59.488Z,7.00
2018-12-31T16:17:28.760Z,7.00
2018-12-31T16:19:57.645Z,6.90
2018-12-31T16:22:27.202Z,6.90
2018-12-31T16:24:56.149Z,6.90
2018-12-31T16:27:25.381Z,6.80
2018-12-31T16:29:54.690Z,6.80
2018-12-31T16:32:23.716Z,6.80
2018-12-31T16:34:52.669Z,6.90
2018-12-31T16:37:21.525Z,7.00
2018-12-31T16:39:51.174Z,7.00
2018-12-31T16:42:20.408Z,7.00
2018-12-31T16:44:49.656Z,7.00
2018-12-31T16:47:18.533Z,7.00
2018-12-31T16:49:47.492Z,7.00
2018-12-31T16:52:17.097Z,6.90
2018-12-31T16:54:46.370Z,7.00
2018-12-31T16:57:15.369Z,7.00
2018-12-31T16:59:44.256Z,7.00
2018-12-31T17:02:13.597Z,7.00
2018-12-31T17:04:42.956Z,7.00
2018-12-31T17:07:12.097Z,7.00
2018-12-31T17:09:41.123Z,7.00
2018-12-31T17:12:10.553Z,7.00
2018-12-31T17:14:39.488Z,7.00
2018-12-31T17:17:08.650Z,7.00
2018-12-31T17:19:37.559Z,6.80
2018-12-31T17:22:06.488Z,6.80
2018-12-31T17:24:35.385Z,7.00
2018-12-31T17:27:04.381Z,6.90
2018-12-31T17:29:33.271Z,6.80
2018-12-31T17:32:02.540Z,6.90
2018-12-31T17:34:31.834Z,6.80
2018-12-31T17:37:00.857Z,6.80
2018-12-31T17:39:29.762Z,6.80
2018-12-31T17:41:58.784Z,6.80
2018-12-31T17:44:27.925Z,6.90
2018-12-31T17:46:56.893Z,6.80
2018-12-31T17:49:26.281Z,6.80
2018-12-31T17:51:55.902Z,6.70
2018-12-31T17:54:25.093Z,6.70
2018-12-31T17:56:53.977Z,6.70
2018-12-31T17:59:22.933Z,6.70
2018-12-31T18:01:52.466Z,6.80
2018-12-31T18:04:21.721Z,6.90
2018-12-31T18:06:51.069Z,6.90
2018-12-31T18:09:20.145Z,6.90
2018-12-31T18:11:49.360Z,6.90
2018-12-31T18:14:18.669Z,6.90
2018-12-31T18:16:47.593Z,6.80
2018-12-31T18:19:16.638Z,6.90
2018-12-31T18:21:45.499Z,6.90
2018-12-31T18:24:14.465Z,7.00
2018-12-31T18:26:43.421Z,7.00
2018-12-31T18:29:12.628Z,6.90
2018-12-31T18:31:41.921Z,7.00
2018-12-31T18:34:10.796Z,6.90
2018-12-31T18:36:39.916Z,6.90
2018-12-31T18:39:08.948Z,6.90
2018-12-31T18:41:37.852Z,6.90
2018-12-31T18:44:06.793Z,6.90
2018-12-31T18:46:37.231Z,6.90
2018-12-31T18:49:06.372Z,7.00
2018-12-31T18:51:35.921Z,6.90
2018-12-31T18:54:04.961Z,7.00
2018-12-31T18:56:34.169Z,7.20
2018-12-31T18:59:03.033Z,7.30
2018-12-31T19:01:32.305Z,7.20
2018-12-31T19:04:01.706Z,7.20
2018-12-31T19:06:30.573Z,7.20
2018-12-31T19:08:59.698Z,7.20
2018-12-31T19:11:28.648Z,7.20
2018-12-31T19:13:57.597Z,7.20
2018-12-31T19:16:26.621Z,7.00
2018-12-31T19:18:55.481Z,7.00
2018-12-31T19:21:24.465Z,7.00
2018-12-31T19:23:53.861Z,6.90
2018-12-31T19:26:22.725Z,6.90
2018-12-31T19:28:51.805Z,6.80
2018-12-31T19:31:21.406Z,6.80
2018-12-31T19:33:50.344Z,6.80
2018-12-31T19:36:19.896Z,6.80
2018-12-31T19:38:48.830Z,6.80
2018-12-31T19:41:17.749Z,6.80
2018-12-31T19:43:46.933Z,6.80
2018-12-31T19:46:16.136Z,6.80
2018-12-31T19:48:45.536Z,6.90
2018-12-31T19:51:14.727Z,6.90
2018-12-31T19:53:44.034Z,6.90
2018-12-31T19:56:13.372Z,7.00
2018-12-31T19:58:42.653Z,6.90
2018-12-31T20:01:12.053Z,6.80
2018-12-31T20:03:40.905Z,6.90
2018-12-31T20:06:10.203Z,6.80
2018-12-31T20:08:39.058Z,6.70
2018-12-31T20:11:07.930Z,6.60
2018-12-31T20:13:37.538Z,6.60
2018-12-31T20:16:06.481Z,6.50
2018-12-31T20:18:35.701Z,6.50
2018-12-31T20:21:04.723Z,6.50
2018-12-31T20:23:33.578Z,6.50
2018-12-31T20:26:02.449Z,6.50
2018-12-31T20:28:31.614Z,6.60
2018-12-31T20:31:00.637Z,6.60
2018-12-31T20:33:29.578Z,6.60
2018-12-31T20:35:58.809Z,6.50
2018-12-31T20:38:27.840Z,6.50
2018-12-31T20:40:57.481Z,6.50
2018-12-31T20:43:26.353Z,6.50
2018-12-31T20:45:55.558Z,6.50
2018-12-31T20:48:24.527Z,6.50
2018-12-31T20:50:53.849Z,6.60
2018-12-31T20:53:22.869Z,6.60
2018-12-31T20:55:51.735Z,6.60
2018-12-31T20:58:20.934Z,6.60
2018-12-31T21:00:49.860Z,6.50
2018-12-31T21:03:19.071Z,6.50
2018-12-31T21:05:48.321Z,6.40
2018-12-31T21:08:17.469Z,6.40
2018-12-31T21:10:46.397Z,6.40
2018-12-31T21:13:15.561Z,6.40
2018-12-31T21:15:44.493Z,6.40
2018-12-31T21:18:13.360Z,6.40
2018-12-31T21:20:42.901Z,6.40
2018-12-31T21:23:11.841Z,6.40
2018-12-31T21:25:41.096Z,6.40
2018-12-31T21:28:09.961Z,6.50
2018-12-31T21:30:38.832Z,6.50
2018-12-31T21:33:08.885Z,6.50
2018-12-31T21:35:37.749Z,6.60
2018-12-31T21:38:06.773Z,6.60
2018-12-31T21:40:35.804Z,6.60
2018-12-31T21:43:04.845Z,6.60
2018-12-31T21:45:34.209Z,6.60
2018-12-31T21:48:03.171Z,6.50
2018-12-31T21:50:33.012Z,6.50
2018-12-31T21:53:02.048Z,6.50
2018-12-31T21:55:30.981Z,6.40
2018-12-31T21:58:00.273Z,6.50
2018-12-31T22:00:29.657Z,6.60
2018-12-31T22:02:58.646Z,6.60
2018-12-31T22:05:27.592Z,6.60
2018-12-31T22:07:56.856Z,6.60
2018-12-31T22:10:26.098Z,6.60
2018-12-31T22:12:55.072Z,6.60
2018-12-31T22:15:24.005Z,6.60
2018-12-31T22:17:52.877Z,6.60
2018-12-31T22:20:21.745Z,6.60
2018-12-31T22:22:51.033Z,6.60
2018-12-31T22:25:20.451Z,6.60
2018-12-31T22:27:49.337Z,6.50
2018-12-31T22:30:18.561Z,6.60
2018-12-31T22:32:47.586Z,6.70
2018-12-31T22:35:16.633Z,6.60
2018-12-31T22:37:45.985Z,6.60
2018-12-31T22:40:15.169Z,6.80
2018-12-31T22:42:44.383Z,6.60
2018-12-31T22:45:13.301Z,6.60
2018-12-31T22:47:42.158Z,6.50
2018-12-31T22:50:12.001Z,6.50
2018-12-31T22:52:40.868Z,6.50
2018-12-31T22:55:09.753Z,6.50
2018-12-31T22:57:38.701Z,6.50
2018-12-31T23:00:09.580Z,6.50
2018-12-31T23:02:38.892Z,6.50
2018-12-31T23:05:09.872Z,6.60
2018-12-31T23:07:38.761Z,6.50
2018-12-31T23:10:09.258Z,6.50
2018-12-31T23:12:38.578Z,6.50
2018-12-31T23:15:11.432Z,6.40
2018-12-31T23:17:40.290Z,6.50
2018-12-31T23:20:10.350Z,6.50
2018-12-31T23:22:39.752Z,6.40
2018-12-31T23:25:09.054Z,6.40
2018-12-31T23:27:38.572Z,6.40
2018-12-31T23:30:09.203Z,6.40
2018-12-31T23:32:38.489Z,6.30
2018-12-31T23:35:07.980Z,6.30
2018-12-31T23:37:38.524Z,6.30
2018-12-31T23:40:08.624Z,6.20
2018-12-31T23:42:37.572Z,6.20
2018-12-31T23:45:07.746Z,6.20
2018-12-31T23:47:36.754Z,6.20
2018-12-31T23:50:06.909Z,6.30
2018-12-31T23:52:35.844Z,6.30
2018-12-31T23:55:05.010Z,6.30
2018-12-31T23:57:34.164Z,6.30
